Latest Weather Observations for Mount Wellington

IDT60801

Issued at 10:05 pm EDT Monday 20 October 2014 (issued every 30 minutes, with the page automatically refreshed every 10 minutes)

About weather observations | Map of weather stations | Latest weather observations for TAS | Other Formats
Station Details ID: 094087 Name: MOUNT WELLINGTON Lat: -42.90 Lon: 147.24 Height: 1260.47 m
Data from the previous 72 hours. | See also: Recent months at Mount Wellington
Date/Time
EDT
Temp
°C
App
Temp
°C
Dew
Point
Rel
Hum
%
Delta-T
°C
Wind Press
QNH
hPa
Press
MSL
hPa
Rain
since 9 am
mm
Dir
 
Spd
km/h
Gust
km/h
Spd
kts
Gust
kts
20/10:00pm 0.1 -4.0 -0.3 97 0.2 NNE 11 17 6 9 - - 0.0
20/09:30pm 0.3 -3.4 -0.1 97 0.2 NE 9 11 5 6 - - 0.0
20/09:00pm 0.0 -3.8 -0.7 95 0.3 NNE 9 11 5 6 - - 0.0
20/08:30pm 0.1 -3.1 -0.7 94 0.3 NE 6 7 3 4 - - 0.0
20/08:00pm 0.5 -2.7 -0.5 93 0.4 NNE 6 9 3 5 - - 0.0
20/07:30pm 1.6 -1.6 -0.3 87 0.8 NNW 6 7 3 4 - - 0.0
20/07:00pm 2.6 -0.7 0.0 83 1.1 NW 7 11 4 6 - - 0.0
20/06:30pm 2.7 -0.9 0.4 85 0.9 NNW 9 11 5 6 - - 0.0
20/06:00pm 2.2 -1.4 0.9 91 0.5 NNW 9 11 5 6 - - 0.0
20/05:30pm 1.5 -1.1 1.1 97 0.2 SW 4 7 2 4 - - 0.0
20/05:00pm 1.0 -2.6 0.6 97 0.2 S 9 13 5 7 - - 0.0
20/04:30pm 1.2 -2.0 0.6 96 0.2 SE 7 9 4 5 - - 0.0
20/04:00pm 2.0 -1.6 0.8 92 0.5 SE 9 15 5 8 - - 0.0
20/03:30pm 3.3 0.3 1.0 85 1.0 NNE 6 13 3 7 - - 0.0
20/03:00pm 1.9 -1.4 0.0 87 0.8 S 7 13 4 7 - - 0.0
20/02:30pm 2.5 -0.2 0.6 87 0.8 WSW 4 9 2 5 - - 0.0
20/02:00pm 3.1 -0.2 0.3 82 1.1 NNE 7 15 4 8 - - 0.0
20/01:30pm 2.3 -1.0 0.4 87 0.8 S 7 19 4 10 - - 0.0
20/01:00pm 1.8 -1.3 -0.1 87 0.8 NE 6 13 3 7 - - 0.0
20/12:30pm 1.6 -1.8 -0.5 86 0.8 NNE 7 15 4 8 - - 0.0
20/12:00pm 1.0 -3.6 -0.9 87 0.7 N 13 20 7 11 - - 0.0
20/11:30am 0.3 -3.6 -1.3 89 0.6 N 9 17 5 9 - - 0.0
20/11:00am -0.8 -3.0 -1.8 93 0.3 CALM 0 0 0 0 - - 0.0
20/10:30am -0.9 -3.1 -1.9 93 0.3 SW 0 0 0 0 - - 0.0
20/10:00am -1.5 -3.8 -2.6 92 0.3 CALM 0 0 0 0 - - 0.0
20/09:30am -2.1 -4.5 -3.2 92 0.3 CALM 0 0 0 0 - - 0.0
20/09:00am -1.9 -4.2 -2.7 94 0.2 CALM 0 0 0 0 - - 3.4
20/08:30am -2.7 -5.2 -3.8 92 0.3 CALM 0 0 0 0 - - 3.4
20/08:00am -2.9 -5.4 -3.9 93 0.2 SW 0 0 0 0 - - 3.4
20/07:30am -3.1 -9.2 -3.9 94 0.1 SW 19 30 10 16 - - 3.4
20/07:00am -3.5 -11.8 -4.6 92 0.2 SW 30 35 16 19 - - 3.4
20/06:30am -3.7 -9.9 -4.5 94 0.1 SW 19 28 10 15 - - 3.4
20/06:00am -3.5 -10.2 -4.5 93 0.2 SW 22 32 12 17 - - 3.4
20/05:30am -4.1 -10.0 -5.2 92 0.2 SW 17 26 9 14 - - 3.4
20/05:00am -4.2 -14.2 -5.2 93 0.1 SW 39 50 21 27 - - 3.4
20/04:30am -4.0 -14.4 -5.0 93 0.2 SW 41 48 22 26 - - 3.4
20/04:00am -4.3 -13.6 -5.1 94 0.1 SW 35 43 19 23 - - 3.4
20/03:30am -3.6 -12.8 -4.3 95 0.1 SW 35 44 19 24 - - 3.4
20/03:00am -3.7 -12.9 -4.5 94 0.1 SW 35 44 19 24 - - 3.4
20/02:30am -3.8 -12.4 -4.6 94 0.1 SW 32 41 17 22 - - 3.4
20/02:00am -3.5 -11.3 -4.2 95 0.1 SW 28 37 15 20 - - 3.4
20/01:30am -3.4 -10.9 -4.1 95 0.1 SW 26 37 14 20 - - 3.4
20/01:00am -3.3 -11.5 -4.0 95 0.1 SW 30 39 16 21 - - 3.4
20/12:30am -3.1 -11.8 -3.8 95 0.1 SW 33 48 18 26 - - 3.4
20/12:00am -2.9 -12.0 -3.6 95 0.1 SW 35 50 19 27 - - 3.4
 
Date/Time
EDT
Temp
°C
App
Temp
°C
Dew
Point
Rel
Hum
%
Delta-T
°C
Wind Press
QNH
hPa
Press
MSL
hPa
Rain
since 9 am
mm
Dir
 
Spd
km/h
Gust
km/h
Spd
kts
Gust
kts
19/11:49pm -3.0 -11.7 -3.7 95 0.1 SW 33 54 18 29 - - 3.4
19/11:30pm -3.1 -12.6 -3.8 95 0.1 SW 37 50 20 27 - - 3.4
19/11:00pm -2.5 -11.5 -3.0 96 0.1 SW 35 48 19 26 - - 3.4
19/10:30pm -2.5 -14.8 -3.0 96 0.1 SW 52 65 28 35 - - 3.4
19/10:00pm -2.3 -14.9 -2.8 96 0.1 SW 54 67 29 36 - - 3.4
19/09:30pm -2.0 -13.8 -2.6 96 0.1 SW 50 61 27 33 - - 3.4
19/09:00pm -1.7 -13.9 -2.1 97 0.1 SW 52 69 28 37 - - 3.4
19/08:30pm -1.3 -10.9 -1.7 97 0.1 SW 39 63 21 34 - - 3.2
19/08:00pm -0.8 -12.4 -1.1 98 0.1 SW 50 69 27 37 - - 3.2
19/07:30pm -0.3 -10.7 -0.6 98 0.1 SW 44 57 24 31 - - 3.0
19/07:06pm -0.3 -11.1 -0.6 98 0.1 SW 46 65 25 35 - - 2.6
19/07:00pm -0.2 -10.4 -0.5 98 0.1 SW 43 54 23 29 - - 2.4
19/06:30pm 0.0 -8.7 -0.3 98 0.1 WSW 35 46 19 25 - - 1.8
19/06:00pm 0.1 -10.1 -0.2 98 0.1 WSW 43 54 23 29 - - 1.6
19/05:30pm 0.6 -11.2 0.3 98 0.1 WSW 52 67 28 36 - - 1.4
19/05:00pm 0.7 -11.9 0.4 98 0.1 WSW 56 65 30 35 - - 1.4
19/04:30pm 0.9 -11.6 0.5 97 0.2 WSW 56 65 30 35 - - 1.4
19/04:00pm 1.2 -10.5 0.8 97 0.2 WSW 52 67 28 36 - - 1.2
19/03:45pm 1.2 -10.5 0.8 97 0.2 WSW 52 67 28 36 - - 1.2
19/03:30pm 2.1 -7.0 1.7 97 0.2 WSW 39 48 21 26 - - 1.0
19/03:00pm 4.1 -1.0 3.2 94 0.4 WSW 19 33 10 18 - - 0.0
19/02:30pm 6.0 -1.7 2.5 78 1.6 W 32 44 17 24 - - 0.0
19/02:00pm 4.3 -3.5 2.7 89 0.7 WSW 33 56 18 30 - - 0.0
19/01:55pm 4.4 -4.2 2.8 89 0.7 WSW 37 56 20 30 - - 0.0
19/01:30pm 5.0 -3.7 2.0 81 1.3 WSW 37 54 20 29 - - 0.0
19/01:00pm 5.0 -3.0 4.0 93 0.5 W 35 54 19 29 - - 0.0
19/12:30pm 6.3 0.4 4.0 85 1.1 WSW 24 39 13 21 - - 0.0
19/12:00pm 6.9 0.6 3.5 79 1.6 W 26 39 14 21 - - 0.0
19/11:30am 6.9 -2.0 2.8 75 1.9 W 39 56 21 30 - - 0.0
19/11:01am 8.1 -0.7 3.6 73 2.1 W 39 59 21 32 - - 0.0
19/11:00am 7.8 -0.7 3.1 72 2.2 W 37 50 20 27 - - 0.0
19/10:30am 6.4 -1.7 3.2 80 1.5 W 35 48 19 26 - - 0.0
19/10:00am 6.5 -3.3 3.1 79 1.5 W 44 56 24 30 - - 0.0
19/09:30am 6.5 -2.8 2.9 78 1.6 W 41 56 22 30 - - 0.0
19/09:00am 5.9 -4.0 2.7 80 1.4 W 44 63 24 34 - - 0.0
19/08:41am 6.1 -3.7 3.6 84 1.1 W 44 63 24 34 - - 0.0
19/08:30am 6.2 -5.0 3.9 85 1.1 W 52 65 28 35 - - 0.0
19/08:00am 5.9 -3.6 4.1 88 0.8 W 43 57 23 31 - - 0.0
19/07:35am 6.1 -3.3 4.4 89 0.8 W 43 61 23 33 - - 0.0
19/07:30am 6.1 -3.9 4.3 88 0.8 W 46 65 25 35 - - 0.0
19/07:07am 6.3 -5.8 4.1 86 1.0 W 57 78 31 42 - - 0.0
19/07:00am 6.2 -5.9 4.2 87 0.9 W 57 72 31 39 - - 0.0
19/06:45am 6.2 -4.6 4.0 86 1.0 W 50 70 27 38 - - 0.0
19/06:30am 6.3 -3.8 4.0 85 1.1 W 46 59 25 32 - - 0.0
19/06:01am 7.2 -2.0 3.3 76 1.8 W 41 59 22 32 - - 0.0
19/06:00am 7.2 -1.7 3.3 76 1.8 W 39 57 21 31 - - 0.0
19/05:30am 7.5 -1.9 2.6 71 2.2 W 41 63 22 34 - - 0.0
19/05:25am 7.2 -2.1 2.9 74 2.0 W 41 63 22 34 - - 0.0
19/05:00am 7.2 -3.4 2.9 74 2.0 WNW 48 63 26 34 - - 0.0
19/04:30am 7.2 -2.7 2.9 74 2.0 NW 44 61 24 33 - - 0.0
19/04:00am 6.9 -4.1 3.0 76 1.8 NW 50 65 27 35 - - 0.0
19/03:30am 7.1 -5.1 2.6 73 2.0 NW 56 70 30 38 - - 0.0
19/03:00am 7.2 -5.3 1.9 69 2.3 NW 57 70 31 38 - - 0.0
19/02:30am 7.4 -7.1 1.5 66 2.6 NW 67 80 36 43 - - 0.0
19/02:00am 7.3 -6.5 0.7 63 2.8 NW 63 80 34 43 - - 0.0
19/01:30am 7.6 -6.4 -0.1 58 3.3 NW 63 83 34 45 - - 0.0
19/01:00am 7.8 -6.6 -0.4 56 3.5 NW 65 85 35 46 - - 0.0
19/12:30am 8.3 -6.9 -1.0 52 3.9 NW 69 95 37 51 - - 0.0
19/12:00am 8.9 -6.9 -0.9 50 4.1 NW 72 91 39 49 - - 0.0
 
Date/Time
EDT
Temp
°C
App
Temp
°C
Dew
Point
Rel
Hum
%
Delta-T
°C
Wind Press
QNH
hPa
Press
MSL
hPa
Rain
since 9 am
mm
Dir
 
Spd
km/h
Gust
km/h
Spd
kts
Gust
kts
18/11:35pm 8.6 -7.6 -0.9 51 4.0 NW 74 95 40 51 - - 0.0
18/11:30pm 8.8 -7.8 -1.3 49 4.2 NW 76 95 41 51 - - 0.0
18/11:03pm 8.1 -6.7 1.7 64 2.8 NW 69 89 37 48 - - 0.0
18/11:00pm 8.1 -6.9 2.1 66 2.7 NW 70 89 38 48 - - 0.0
18/10:59pm 8.1 -6.7 2.1 66 2.7 NW 69 89 37 48 - - 0.0
18/10:30pm 8.5 -5.9 4.3 75 2.0 NW 69 80 37 43 - - 0.0
18/10:14pm 8.4 -4.8 4.6 77 1.8 NW 63 87 34 47 - - 0.0
18/10:00pm 7.9 -4.6 4.1 77 1.8 NW 59 70 32 38 - - 0.0
18/09:30pm 8.6 -4.7 4.0 73 2.2 NW 63 78 34 42 - - 0.0
18/09:00pm 8.0 -3.3 3.7 74 2.0 NW 52 69 28 37 - - 0.0
18/08:30pm 8.7 -1.8 3.7 71 2.3 NW 48 65 26 35 - - 0.0
18/08:00pm 8.1 -1.5 3.4 72 2.2 NW 43 50 23 27 - - 0.0
18/07:30pm 8.3 0.2 3.4 71 2.3 NW 35 43 19 23 - - 0.0
18/07:00pm 9.9 0.1 3.2 63 3.1 WNW 44 63 24 34 - - 0.0
18/06:59pm 9.3 -0.3 3.5 67 2.7 WNW 43 63 23 34 - - 0.0
18/06:30pm 8.5 -1.3 3.1 69 2.5 WNW 44 50 24 27 - - 0.0
18/06:00pm 9.2 -0.7 1.9 60 3.3 NW 43 54 23 29 - - 0.0
18/05:30pm 9.5 -0.6 1.7 58 3.5 NW 44 57 24 31 - - 0.0
18/05:00pm 9.6 1.8 1.5 57 3.6 NW 32 39 17 21 - - 0.0
18/04:30pm 9.6 3.3 1.3 56 3.7 WNW 24 33 13 18 - - 0.0
18/04:00pm 9.2 1.4 1.6 59 3.4 WNW 32 37 17 20 - - 0.0
18/03:30pm 10.0 2.3 2.1 58 3.6 WNW 32 44 17 24 - - 0.0
18/03:00pm 10.5 2.9 2.6 58 3.7 WNW 32 43 17 23 - - 0.0
18/02:30pm 10.5 2.8 2.4 57 3.7 WNW 32 44 17 24 - - 0.0
18/02:00pm 10.6 3.0 2.9 59 3.6 NW 32 43 17 23 - - 0.0
18/01:30pm 10.7 3.6 3.5 61 3.4 NNW 30 41 16 22 - - 0.0
18/01:00pm 10.4 2.4 3.9 64 3.1 NW 35 44 19 24 - - 0.0
18/12:30pm 10.0 2.2 2.8 61 3.3 NW 33 43 18 23 - - 0.0
18/12:00pm 10.5 2.8 2.1 56 3.8 NW 32 39 17 21 - - 0.0
18/11:30am 7.9 0.2 -0.1 57 3.4 WNW 30 41 16 22 - - 0.0
18/11:00am 7.1 -2.2 0.3 62 2.9 WNW 39 48 21 26 - - 0.0
18/10:30am 7.5 1.3 0.0 59 3.2 WNW 22 30 12 16 - - 0.0
18/10:00am 6.6 -0.8 -0.6 60 3.0 W 28 35 15 19 - - 0.0
18/09:30am 5.2 -1.7 0.2 70 2.1 W 26 33 14 18 - - 0.0
18/09:00am 5.0 -1.5 0.2 71 2.0 W 24 30 13 16 - - 0.0
18/08:30am 2.2 -5.8 0.1 86 0.8 W 32 41 17 22 - - 0.0
18/08:00am 2.1 -6.1 0.5 89 0.7 WNW 33 43 18 23 - - 0.0
18/07:30am 1.5 -7.1 0.5 93 0.4 WNW 35 46 19 25 - - 0.0
18/07:00am 1.1 -7.5 0.4 95 0.3 NW 35 46 19 25 - - 0.0
18/06:30am 0.7 -7.3 0.4 98 0.1 WNW 32 35 17 19 - - 0.0
18/06:00am 1.1 -6.5 0.8 98 0.1 NNW 30 35 16 19 - - 0.0
18/05:30am 1.5 -6.6 1.2 98 0.1 NNW 33 39 18 21 - - 0.0
18/05:00am 1.6 -6.8 1.3 98 0.1 NNW 35 43 19 23 - - 0.0
18/04:30am 1.7 -6.1 1.4 98 0.1 NNW 32 39 17 21 - - 0.0
18/04:00am 1.6 -5.5 1.3 98 0.1 NW 28 35 15 19 - - 0.0
18/03:30am 2.0 -3.9 1.7 98 0.1 NW 22 28 12 15 - - 0.0
18/03:00am 2.0 -3.5 1.7 98 0.1 NNW 20 28 11 15 - - 0.0
18/02:30am 1.9 -4.4 1.6 98 0.1 NNW 24 30 13 16 - - 0.0
18/02:00am 1.1 -4.9 0.8 98 0.1 N 22 30 12 16 - - 0.0
18/01:30am 0.7 -5.0 0.4 98 0.1 N 20 26 11 14 - - 0.0
18/01:00am 0.4 -5.7 0.1 98 0.1 N 22 28 12 15 - - 0.0
18/12:30am 0.4 -6.1 0.1 98 0.1 N 24 28 13 15 - - 0.0
18/12:00am 0.5 -5.6 0.2 98 0.1 N 22 26 12 14 - - 0.0
 
Date/Time
EDT
Temp
°C
App
Temp
°C
Dew
Point
Rel
Hum
%
Delta-T
°C
Wind Press
QNH
hPa
Press
MSL
hPa
Rain
since 9 am
mm
Dir
 
Spd
km/h
Gust
km/h
Spd
kts
Gust
kts
17/11:30pm 0.6 -5.1 0.3 98 0.1 N 20 24 11 13 - - 0.0
17/11:00pm 0.4 -5.2 0.1 98 0.1 NNE 19 22 10 12 - - 0.0
17/10:30pm 0.6 -4.2 0.3 98 0.1 NNE 15 19 8 10 - - 0.0

Other Formats:

Comma delimited format used in spreadsheet applications
http://www.bom.gov.au/fwo/IDT60801/IDT60801.95979.axf

JavaScript Object Notation format (JSON) in row-major order
http://www.bom.gov.au/fwo/IDT60801/IDT60801.95979.json